Time;durP1;ratioP1;P1;durP2;ratioP2;P2;SDS_P1;SDS_P2;PMS_P1;PMS_P2;Temp;Humidity;BMP_temperature;BMP_pressure;BME280_temperature;BME280_humidity;BME280_pressure;Samples;Min_cycle;Max_cycle;Signal;HPM_P1;HPM_P2
2021/03/14 00:00:36;;;;;;;3.33;1.17;;;6.90;99.90;;;;;;4971562;28;20201;-75
2021/03/14 00:03:05;;;;;;;8.60;0.97;;;7.00;99.90;;;;;;4971954;28;20236;-74
2021/03/14 00:05:32;;;;;;;7.57;1.13;;;6.90;99.90;;;;;;4940092;28;20224;-75
2021/03/14 00:07:59;;;;;;;7.83;1.67;;;7.00;99.90;;;;;;4975341;28;20847;-76
2021/03/14 00:10:25;;;;;;;5.53;1.40;;;7.00;99.90;;;;;;4944100;28;20256;-75
2021/03/14 00:12:52;;;;;;;3.70;1.17;;;7.00;99.90;;;;;;4961923;28;20206;-76
2021/03/14 00:15:20;;;;;;;5.40;0.97;;;6.90;99.90;;;;;;4943208;28;20646;-76
2021/03/14 00:18:04;;;;;;;5.70;1.40;;;7.00;99.90;;;;;;4973226;28;20216;-76
2021/03/14 00:20:32;;;;;;;7.63;1.20;;;7.10;99.90;;;;;;4969753;28;20210;-75
2021/03/14 00:22:58;;;;;;;4.77;1.07;;;6.90;99.90;;;;;;4974069;28;20890;-76
2021/03/14 00:25:24;;;;;;;4.10;1.30;;;7.00;99.90;;;;;;4955328;28;20336;-75
2021/03/14 00:27:51;;;;;;;3.70;1.03;;;6.90;99.90;;;;;;4936829;28;20218;-76
2021/03/14 00:30:18;;;;;;;11.10;1.00;;;6.80;99.90;;;;;;4974706;28;20293;-76
2021/03/14 00:32:45;;;;;;;5.33;1.30;;;6.70;99.90;;;;;;4974378;28;20272;-73
2021/03/14 00:35:14;;;;;;;3.80;0.90;;;6.70;99.90;;;;;;4955191;28;20302;-76
2021/03/14 00:37:41;;;;;;;4.23;1.00;;;6.80;99.90;;;;;;4973881;28;21225;-76
2021/03/14 00:40:19;;;;;;;3.30;0.90;;;6.70;99.90;;;;;;4958010;28;20210;-75
2021/03/14 00:42:45;;;;;;;11.13;1.37;;;6.70;99.90;;;;;;4974114;28;20213;-75
2021/03/14 00:45:28;;;;;;;6.63;1.10;;;6.60;99.90;;;;;;4963340;28;20748;-74
2021/03/14 00:47:54;;;;;;;4.17;1.17;;;6.60;99.90;;;;;;4975924;28;20258;-75
2021/03/14 00:50:21;;;;;;;4.93;1.63;;;6.70;99.90;;;;;;4973544;28;20203;-76
2021/03/14 00:52:48;;;;;;;3.53;1.30;;;6.90;99.90;;;;;;4974189;28;20526;-75
2021/03/14 00:55:14;;;;;;;9.13;1.10;;;6.90;99.90;;;;;;4959680;28;20214;-75
2021/03/14 00:57:41;;;;;;;5.53;1.83;;;6.80;99.90;;;;;;4974882;28;20237;-75
2021/03/14 01:00:08;;;;;;;7.97;0.90;;;6.80;99.90;;;;;;4955786;28;20209;-75
2021/03/14 01:02:34;;;;;;;1.83;1.53;;;6.80;99.90;;;;;;4965465;28;20511;-75
2021/03/14 01:05:01;;;;;;;5.90;0.70;;;6.70;99.90;;;;;;4973747;28;20211;-75
2021/03/14 01:07:27;;;;;;;3.73;0.90;;;6.70;99.90;;;;;;4945076;28;20601;-75
2021/03/14 01:09:54;;;;;;;2.73;1.20;;;6.60;99.90;;;;;;4960422;28;20209;-74
2021/03/14 01:12:20;;;;;;;4.73;1.00;;;6.60;99.90;;;;;;4976254;28;20225;-76
2021/03/14 01:14:46;;;;;;;2.30;0.80;;;6.60;99.90;;;;;;4958924;28;20207;-74
2021/03/14 01:17:13;;;;;;;4.10;0.83;;;6.70;99.90;;;;;;4974275;28;20763;-75
2021/03/14 01:19:40;;;;;;;6.20;1.03;;;6.70;99.90;;;;;;4970485;28;20306;-75
2021/03/14 01:22:07;;;;;;;3.37;1.23;;;6.60;99.90;;;;;;4941722;28;20245;-75
2021/03/14 01:24:33;;;;;;;6.77;1.00;;;6.60;99.90;;;;;;4951015;28;20278;-76
2021/03/14 01:27:00;;;;;;;6.30;1.23;;;6.50;99.90;;;;;;4974505;28;20260;-75
2021/03/14 01:29:26;;;;;;;7.13;0.90;;;6.60;99.90;;;;;;4956151;28;20257;-74
2021/03/14 01:31:52;;;;;;;1.93;0.73;;;6.50;99.90;;;;;;4959814;28;20211;-75
2021/03/14 01:34:19;;;;;;;11.20;1.17;;;6.50;99.90;;;;;;4974309;28;20201;-75
2021/03/14 01:36:45;;;;;;;4.67;0.73;;;6.40;99.90;;;;;;4956430;28;20211;-75
2021/03/14 01:39:12;;;;;;;2.10;0.53;;;6.40;99.90;;;;;;4953194;28;20552;-75
2021/03/14 01:41:39;;;;;;;2.57;0.70;;;6.20;99.90;;;;;;4963578;28;20210;-75
2021/03/14 01:44:05;;;;;;;2.80;0.80;;;6.20;99.90;;;;;;4963715;28;20242;-74
2021/03/14 01:46:33;;;;;;;6.40;1.00;;;6.20;99.90;;;;;;4930452;28;20249;-75
2021/03/14 01:49:13;;;;;;;3.23;1.00;;;6.20;99.90;;;;;;4960403;28;20214;-75
2021/03/14 01:51:41;;;;;;;5.50;1.20;;;6.20;99.90;;;;;;4950594;28;20274;-75
2021/03/14 01:54:09;;;;;;;5.60;1.10;;;6.20;99.90;;;;;;4955473;28;20236;-76
2021/03/14 01:56:36;;;;;;;7.30;1.53;;;6.20;99.90;;;;;;4973441;28;20579;-74
2021/03/14 01:59:03;;;;;;;5.30;0.97;;;6.10;99.90;;;;;;4972270;28;20931;-75
2021/03/14 02:01:31;;;;;;;3.77;1.00;;;6.10;99.90;;;;;;4951344;28;20202;-74
2021/03/14 02:03:58;;;;;;;3.33;1.27;;;6.10;99.90;;;;;;4953000;28;20640;-74
2021/03/14 02:06:25;;;;;;;4.43;0.87;;;6.10;99.90;;;;;;4961746;28;20604;-75
2021/03/14 02:08:51;;;;;;;4.90;1.10;;;6.10;99.90;;;;;;4975577;28;20241;-75
2021/03/14 02:11:21;;;;;;;8.90;1.40;;;6.00;99.90;;;;;;4943184;28;20526;-75
2021/03/14 02:13:50;;;;;;;4.07;1.40;;;6.00;99.90;;;;;;4972510;28;20229;-75
2021/03/14 02:16:34;;;;;;;4.43;0.93;;;6.10;99.90;;;;;;4967226;28;20222;-76
2021/03/14 02:19:03;;;;;;;9.20;1.20;;;6.20;99.90;;;;;;4972057;28;20348;-75
2021/03/14 02:21:34;;;;;;;7.67;1.30;;;6.10;99.90;;;;;;4972070;28;20292;-75
2021/03/14 02:24:14;;;;;;;4.23;0.80;;;6.00;99.90;;;;;;4971725;28;20608;-75
2021/03/14 02:26:45;;;;;;;7.63;1.40;;;5.90;99.90;;;;;;4961533;28;20685;-75
2021/03/14 02:29:15;;;;;;;2.40;0.93;;;5.90;99.90;;;;;;4955917;28;20451;-75
2021/03/14 02:31:45;;;;;;;5.43;1.13;;;5.90;99.90;;;;;;4944529;28;20321;-75
2021/03/14 02:34:14;;;;;;;5.80;1.23;;;5.80;99.90;;;;;;4956211;28;20218;-75
2021/03/14 02:36:43;;;;;;;5.17;1.60;;;5.70;99.90;;;;;;4969529;28;20277;-75
2021/03/14 02:39:13;;;;;;;3.40;1.03;;;5.60;99.90;;;;;;4972917;28;20202;-75
2021/03/14 02:41:42;;;;;;;6.17;1.20;;;5.60;99.90;;;;;;4957799;28;20284;-74
2021/03/14 02:44:12;;;;;;;8.40;1.07;;;5.60;99.90;;;;;;4971297;28;20205;-75
2021/03/14 02:46:40;;;;;;;7.20;1.40;;;5.60;99.90;;;;;;4972051;28;20258;-75
2021/03/14 02:49:07;;;;;;;8.07;1.67;;;5.60;99.90;;;;;;4971751;28;20218;-74
2021/03/14 02:51:34;;;;;;;6.20;1.30;;;5.60;99.90;;;;;;4945692;28;20768;-74
2021/03/14 02:54:01;;;;;;;4.63;1.10;;;5.60;99.90;;;;;;4971913;28;20668;-75
2021/03/14 02:56:28;;;;;;;4.77;1.17;;;5.60;99.90;;;;;;4960979;28;20286;-75
2021/03/14 02:58:54;;;;;;;3.83;1.20;;;5.60;99.90;;;;;;4945923;28;20270;-75
2021/03/14 03:01:21;;;;;;;6.27;1.10;;;5.60;99.90;;;;;;4948290;28;20210;-76
2021/03/14 03:03:48;;;;;;;4.13;1.17;;;5.60;99.90;;;;;;4942207;28;20668;-75
2021/03/14 03:06:16;;;;;;;9.23;1.07;;;5.60;99.90;;;;;;4971831;28;20728;-74
2021/03/14 03:08:43;;;;;;;7.77;1.33;;;5.60;99.90;;;;;;4940602;28;20466;-74
2021/03/14 03:11:14;;;;;;;6.70;1.40;;;5.80;99.90;;;;;;4963650;28;20551;-75
2021/03/14 03:13:41;;;;;;;14.90;1.47;;;5.80;99.90;;;;;;4961051;28;20242;-74
2021/03/14 03:16:17;;;;;;;4.60;1.07;;;5.70;99.90;;;;;;4955521;28;20269;-75
2021/03/14 03:18:44;;;;;;;4.10;1.00;;;5.80;99.90;;;;;;4971227;28;20205;-75
2021/03/14 03:21:12;;;;;;;4.83;1.23;;;5.70;99.90;;;;;;4946519;28;20202;-74
2021/03/14 03:23:39;;;;;;;3.40;0.80;;;5.70;99.90;;;;;;4958284;28;20314;-74
2021/03/14 03:26:06;;;;;;;2.87;1.10;;;5.80;99.90;;;;;;4969813;28;20228;-75
2021/03/14 03:28:34;;;;;;;3.70;1.27;;;5.70;99.90;;;;;;4962615;28;20251;-75
2021/03/14 03:31:01;;;;;;;4.53;1.10;;;5.80;99.90;;;;;;4945782;28;20748;-75
2021/03/14 03:33:28;;;;;;;3.40;1.37;;;5.80;99.90;;;;;;4974861;28;20210;-75
2021/03/14 03:35:54;;;;;;;6.03;1.20;;;5.80;99.90;;;;;;4961202;28;20680;-75
2021/03/14 03:38:21;;;;;;;7.37;1.10;;;5.80;99.90;;;;;;4975006;28;20237;-75
2021/03/14 03:40:48;;;;;;;5.83;1.17;;;5.80;99.90;;;;;;4975323;28;20268;-76
2021/03/14 03:43:36;;;;;;;7.57;1.83;;;5.70;99.90;;;;;;4942723;28;20684;-75
2021/03/14 03:46:07;;;;;;;5.17;1.43;;;5.80;99.90;;;;;;4975788;28;20645;-76
2021/03/14 03:48:47;;;;;;;6.67;1.90;;;5.70;99.90;;;;;;4956802;28;20359;-76
2021/03/14 03:51:28;;;;;;;3.93;1.73;;;5.70;99.90;;;;;;4963328;28;20248;-75
2021/03/14 03:53:58;;;;;;;5.13;1.93;;;5.70;99.90;;;;;;4973065;28;20214;-77
2021/03/14 03:56:26;;;;;;;8.47;1.40;;;5.70;99.90;;;;;;4976712;28;20199;-74
2021/03/14 03:58:53;;;;;;;3.57;1.20;;;5.70;99.90;;;;;;4975380;28;20397;-76
2021/03/14 04:01:20;;;;;;;7.80;1.43;;;5.60;99.90;;;;;;4975067;28;20264;-76
2021/03/14 04:03:49;;;;;;;3.80;1.10;;;5.50;99.90;;;;;;4973672;28;20214;-76
2021/03/14 04:06:17;;;;;;;4.73;1.43;;;5.60;99.90;;;;;;4956785;28;20245;-74
2021/03/14 04:08:46;;;;;;;5.30;1.20;;;5.50;99.90;;;;;;4976231;28;20253;-75
2021/03/14 04:11:14;;;;;;;3.17;1.00;;;5.60;99.90;;;;;;4974923;28;20908;-75
2021/03/14 04:13:43;;;;;;;5.73;1.30;;;5.60;99.90;;;;;;4967491;28;20217;-73
2021/03/14 04:16:11;;;;;;;3.97;1.03;;;5.60;99.90;;;;;;4973101;28;20236;-76
2021/03/14 04:18:39;;;;;;;4.10;1.63;;;5.60;99.90;;;;;;4975440;28;20209;-74
2021/03/14 04:21:13;;;;;;;4.13;1.20;;;5.50;99.90;;;;;;4972826;28;20805;-75
2021/03/14 04:23:43;;;;;;;8.47;1.97;;;5.40;99.90;;;;;;4973738;28;20213;-74
2021/03/14 04:26:11;;;;;;;6.60;1.20;;;5.40;99.90;;;;;;4961971;28;20258;-75
2021/03/14 04:28:40;;;;;;;4.83;1.10;;;5.50;99.90;;;;;;4959233;28;20215;-74
2021/03/14 04:31:07;;;;;;;4.87;1.43;;;5.40;99.90;;;;;;4974200;28;20206;-74
2021/03/14 04:33:34;;;;;;;4.00;1.43;;;5.30;99.90;;;;;;4974436;28;20247;-74
2021/03/14 04:36:03;;;;;;;7.20;1.77;;;5.20;99.90;;;;;;4956698;28;20221;-75
2021/03/14 04:38:30;;;;;;;8.80;1.97;;;5.10;99.90;;;;;;4954867;28;20638;-75
2021/03/14 04:40:58;;;;;;;6.40;2.20;;;5.10;99.90;;;;;;4955686;28;20202;-75
2021/03/14 04:43:26;;;;;;;8.97;2.00;;;5.00;99.90;;;;;;4972716;28;20217;-74
2021/03/14 04:45:53;;;;;;;4.47;1.87;;;5.00;99.90;;;;;;4975193;28;20673;-75
2021/03/14 04:48:21;;;;;;;9.90;2.20;;;5.00;99.90;;;;;;4954993;28;20222;-72
2021/03/14 04:50:50;;;;;;;8.07;2.40;;;4.90;99.90;;;;;;4941877;28;20629;-74
2021/03/14 04:53:25;;;;;;;8.97;2.03;;;5.00;99.90;;;;;;4972524;28;20213;-73
2021/03/14 04:55:52;;;;;;;8.47;2.53;;;5.10;99.90;;;;;;4972308;28;20209;-75
2021/03/14 04:58:21;;;;;;;6.17;2.47;;;5.00;99.90;;;;;;4958122;28;20205;-75
2021/03/14 05:00:49;;;;;;;6.33;2.07;;;5.10;99.90;;;;;;4960471;28;20703;-76
2021/03/14 05:03:19;;;;;;;9.20;2.60;;;5.00;99.90;;;;;;4970979;28;20210;-74
2021/03/14 05:05:47;;;;;;;9.17;2.60;;;5.10;99.90;;;;;;4975814;28;20210;-74
2021/03/14 05:08:18;;;;;;;6.17;1.80;;;5.00;99.90;;;;;;4946156;28;20300;-75
2021/03/14 05:10:45;;;;;;;8.67;2.37;;;5.10;99.90;;;;;;4972970;28;20273;-74
2021/03/14 05:13:12;;;;;;;7.13;2.30;;;5.10;99.90;;;;;;4954885;28;20206;-76
2021/03/14 05:15:41;;;;;;;4.67;1.73;;;5.00;99.90;;;;;;4957239;28;20599;-76
2021/03/14 05:18:12;;;;;;;6.40;3.20;;;5.10;99.90;;;;;;4958499;28;20198;-74
2021/03/14 05:20:39;;;;;;;3.00;1.83;;;5.00;99.90;;;;;;4957144;28;20292;-74
2021/03/14 05:23:07;;;;;;;4.87;2.07;;;5.10;99.90;;;;;;4974232;28;20662;-75
2021/03/14 05:25:34;;;;;;;6.30;2.50;;;5.00;99.90;;;;;;4954792;28;20559;-74
2021/03/14 05:28:02;;;;;;;2.87;2.50;;;4.80;99.90;;;;;;4974808;28;20802;-75
2021/03/14 05:30:32;;;;;;;4.00;2.10;;;4.90;99.90;;;;;;4958776;28;20652;-74
2021/03/14 05:32:58;;;;;;;9.60;2.30;;;5.00;99.90;;;;;;4971228;28;20615;-75
2021/03/14 05:35:27;;;;;;;6.77;2.47;;;4.80;99.90;;;;;;4956967;28;20369;-75
2021/03/14 05:37:58;;;;;;;7.37;2.20;;;4.80;99.90;;;;;;4973385;28;20639;-75
2021/03/14 05:40:26;;;;;;;3.93;2.17;;;4.90;99.90;;;;;;4954679;28;20313;-73
2021/03/14 05:42:54;;;;;;;7.10;2.03;;;4.90;99.90;;;;;;4961358;28;20667;-74
2021/03/14 05:45:21;;;;;;;4.20;2.30;;;4.90;99.90;;;;;;4969989;28;20995;-75
2021/03/14 05:47:48;;;;;;;3.80;2.77;;;4.90;99.90;;;;;;4957709;28;20229;-75
2021/03/14 05:50:19;;;;;;;3.17;2.20;;;4.90;99.90;;;;;;4956029;28;20200;-75
2021/03/14 05:52:48;;;;;;;7.17;1.83;;;4.90;99.90;;;;;;4974301;28;20204;-74
2021/03/14 05:55:17;;;;;;;6.60;2.53;;;4.90;99.90;;;;;;4959122;28;20206;-75
2021/03/14 05:57:46;;;;;;;7.17;3.00;;;5.00;99.90;;;;;;4962187;28;20381;-76
2021/03/14 06:00:16;;;;;;;4.67;2.50;;;4.90;99.90;;;;;;4975982;28;20232;-74
2021/03/14 06:02:44;;;;;;;5.40;2.57;;;4.90;99.90;;;;;;4976290;28;20264;-74
2021/03/14 06:05:14;;;;;;;5.17;2.43;;;5.00;99.90;;;;;;4977001;28;20656;-75
2021/03/14 06:07:40;;;;;;;5.87;2.53;;;4.90;99.90;;;;;;4959048;28;20238;-76
2021/03/14 06:10:08;;;;;;;4.90;2.20;;;4.80;99.90;;;;;;4959199;28;20232;-75
2021/03/14 06:12:34;;;;;;;10.17;3.03;;;4.80;99.90;;;;;;4961718;28;20284;-75
2021/03/14 06:15:02;;;;;;;4.97;2.53;;;4.70;99.90;;;;;;4944309;28;20209;-74
2021/03/14 06:17:28;;;;;;;5.57;2.70;;;4.60;99.90;;;;;;4959637;28;20291;-75
2021/03/14 06:19:55;;;;;;;6.20;2.70;;;4.60;99.90;;;;;;4979769;28;20269;-74
2021/03/14 06:22:38;;;;;;;5.63;3.07;;;4.60;99.90;;;;;;4978528;28;20203;-76
2021/03/14 06:25:05;;;;;;;4.20;2.57;;;4.60;99.90;;;;;;4951080;28;20202;-76
2021/03/14 06:27:51;;;;;;;9.70;3.00;;;4.70;99.90;;;;;;4966080;28;20234;-75
2021/03/14 06:30:26;;;;;;;7.87;2.60;;;4.60;99.90;;;;;;4961792;28;20216;-76
2021/03/14 06:33:11;;;;;;;7.17;2.90;;;4.70;99.90;;;;;;4956892;28;20216;-74
2021/03/14 06:35:51;;;;;;;3.90;2.60;;;4.70;99.90;;;;;;4960208;28;20308;-74
2021/03/14 06:38:27;;;;;;;5.07;3.07;;;4.70;99.90;;;;;;4959076;28;20318;-74
2021/03/14 06:41:12;;;;;;;3.63;2.83;;;4.70;99.90;;;;;;4959901;28;20274;-75
2021/03/14 06:43:49;;;;;;;5.73;2.40;;;4.80;99.90;;;;;;4974454;28;20219;-75
2021/03/14 06:46:29;;;;;;;5.77;2.60;;;4.80;99.90;;;;;;4973376;28;20296;-76
2021/03/14 06:49:06;;;;;;;6.57;2.60;;;4.80;99.90;;;;;;4953460;28;20223;-75
2021/03/14 06:51:38;;;;;;;3.73;2.60;;;4.70;99.90;;;;;;4970567;28;20290;-75
2021/03/14 06:54:40;;;;;;;3.37;2.27;;;4.70;99.90;;;;;;4977779;28;20234;-74
2021/03/14 06:57:20;;;;;;;3.63;2.43;;;4.70;99.90;;;;;;4975142;28;20297;-75
2021/03/14 06:59:52;;;;;;;4.67;2.97;;;4.70;99.90;;;;;;4973428;28;20213;-74
2021/03/14 07:02:30;;;;;;;4.90;3.00;;;4.80;99.90;;;;;;4969940;28;20253;-74
2021/03/14 07:05:04;;;;;;;2.40;2.20;;;4.90;99.90;;;;;;4961762;28;20536;-75
2021/03/14 07:07:32;;;;;;;2.57;2.37;;;5.00;99.90;;;;;;4961287;28;20263;-75
2021/03/14 07:10:00;;;;;;;2.97;2.23;;;5.00;99.90;;;;;;4959540;28;20263;-74
2021/03/14 07:12:29;;;;;;;4.63;2.63;;;5.10;99.90;;;;;;4964593;28;20215;-73
2021/03/14 07:14:56;;;;;;;7.73;3.30;;;5.10;99.90;;;;;;4978509;28;20977;-75
2021/03/14 07:17:27;;;;;;;3.60;3.10;;;5.30;99.90;;;;;;4962523;28;20201;-75
2021/03/14 07:19:58;;;;;;;5.77;3.73;;;5.10;99.90;;;;;;4958767;28;20273;-74
2021/03/14 07:22:26;;;;;;;7.33;3.50;;;5.20;99.90;;;;;;4946573;28;22271;-74
2021/03/14 07:24:52;;;;;;;3.50;3.20;;;5.20;99.90;;;;;;4957320;28;20269;-74
2021/03/14 07:27:26;;;;;;;5.20;3.60;;;5.10;99.90;;;;;;4971682;28;20226;-75
2021/03/14 07:29:54;;;;;;;3.83;3.13;;;5.10;99.90;;;;;;4972823;28;20238;-74
2021/03/14 07:32:21;;;;;;;10.07;4.67;;;5.00;99.90;;;;;;4959735;28;20577;-74
2021/03/14 07:34:48;;;;;;;6.53;3.37;;;5.10;99.90;;;;;;4980406;28;20646;-75
2021/03/14 07:37:15;;;;;;;7.73;2.97;;;5.10;99.90;;;;;;4958632;28;20996;-75
2021/03/14 07:39:46;;;;;;;7.03;3.93;;;5.00;99.90;;;;;;4944321;28;20216;-76
2021/03/14 07:42:17;;;;;;;5.23;3.37;;;5.10;99.90;;;;;;4979258;28;20235;-72
2021/03/14 07:44:44;;;;;;;6.73;3.83;;;5.10;99.90;;;;;;4980262;28;20298;-75
2021/03/14 07:47:14;;;;;;;7.30;3.93;;;5.30;99.90;;;;;;4977661;28;20278;-72
2021/03/14 07:49:49;;;;;;;5.37;3.90;;;5.20;99.90;;;;;;4958112;28;20214;-73
2021/03/14 07:52:22;;;;;;;10.63;4.30;;;5.40;99.90;;;;;;4976739;28;20660;-73
2021/03/14 07:55:12;;;;;;;8.13;4.57;;;5.30;99.90;;;;;;4980130;28;21052;-74
2021/03/14 07:57:43;;;;;;;4.87;3.77;;;5.40;99.90;;;;;;4970373;28;20643;-76
2021/03/14 08:00:29;;;;;;;6.10;3.77;;;5.40;99.90;;;;;;4975136;28;20667;-75
2021/03/14 08:03:05;;;;;;;6.17;3.67;;;5.50;99.90;;;;;;4952965;28;20218;-77
2021/03/14 08:05:41;;;;;;;7.63;4.07;;;5.50;99.90;;;;;;4976384;28;20306;-75
2021/03/14 08:08:31;;;;;;;4.60;3.37;;;6.00;99.90;;;;;;4975509;28;20359;-74
2021/03/14 08:10:58;;;;;;;4.77;3.40;;;5.90;99.90;;;;;;4964109;28;20233;-74
2021/03/14 08:13:27;;;;;;;7.63;3.70;;;6.00;99.90;;;;;;4976665;28;20657;-75
2021/03/14 08:16:08;;;;;;;5.00;3.10;;;6.20;99.90;;;;;;4974600;28;20246;-74
2021/03/14 08:18:39;;;;;;;8.17;2.87;;;6.20;99.90;;;;;;4972574;28;20276;-74
2021/03/14 08:21:26;;;;;;;5.70;3.07;;;6.10;99.90;;;;;;4971461;28;20294;-74
2021/03/14 08:24:12;;;;;;;5.40;2.83;;;6.10;99.90;;;;;;4973389;28;20295;-74
2021/03/14 08:26:38;;;;;;;7.83;3.87;;;6.10;99.90;;;;;;4972160;28;20221;-74
2021/03/14 08:29:13;;;;;;;5.30;2.97;;;6.30;99.90;;;;;;4959418;28;20249;-74
2021/03/14 08:31:47;;;;;;;6.53;3.20;;;6.10;99.90;;;;;;4960158;28;20285;-75
2021/03/14 08:34:20;;;;;;;5.53;3.17;;;6.00;99.90;;;;;;4975086;28;20260;-74
2021/03/14 08:36:48;;;;;;;7.80;3.80;;;6.10;99.90;;;;;;4973079;28;20346;-74
2021/03/14 08:39:29;;;;;;;6.37;3.67;;;6.30;99.90;;;;;;4963783;28;20295;-74
2021/03/14 08:41:59;;;;;;;8.17;3.43;;;6.40;99.90;;;;;;4960100;28;20730;-75
2021/03/14 08:44:45;;;;;;;6.20;2.97;;;6.80;99.90;;;;;;4977302;28;20623;-75
2021/03/14 08:47:37;;;;;;;4.77;3.13;;;6.70;99.90;;;;;;4961968;28;20666;-74
2021/03/14 08:50:05;;;;;;;10.00;3.30;;;7.10;99.90;;;;;;4970912;28;20229;-75
2021/03/14 08:52:31;;;;;;;6.90;4.03;;;7.10;99.90;;;;;;4975425;28;20233;-74
2021/03/14 08:54:58;;;;;;;11.83;3.60;;;7.50;99.90;;;;;;4970479;28;20268;-74
2021/03/14 08:57:24;;;;;;;6.60;3.57;;;7.70;99.90;;;;;;4959089;28;20235;-73
2021/03/14 08:59:53;;;;;;;12.00;4.87;;;7.80;99.90;;;;;;4973486;28;20296;-74
2021/03/14 09:02:29;;;;;;;3.70;3.30;;;7.60;99.90;;;;;;4973115;28;20752;-74
2021/03/14 09:05:16;;;;;;;7.13;3.37;;;7.40;99.90;;;;;;4959704;28;20297;-75
2021/03/14 09:07:44;;;;;;;10.30;3.20;;;7.60;99.90;;;;;;4960009;28;20250;-75
2021/03/14 09:10:18;;;;;;;6.23;3.20;;;7.50;99.90;;;;;;4942199;28;20589;-75
2021/03/14 09:12:57;;;;;;;5.63;3.47;;;7.20;99.90;;;;;;4955300;28;20214;-74
2021/03/14 09:15:23;;;;;;;6.67;3.23;;;7.20;99.90;;;;;;4951453;28;20267;-75
2021/03/14 09:17:50;;;;;;;5.33;2.80;;;6.90;99.90;;;;;;4946494;28;20600;-75
2021/03/14 09:20:23;;;;;;;7.33;3.07;;;6.90;99.90;;;;;;4928879;28;20226;-75
2021/03/14 09:22:50;;;;;;;3.50;3.20;;;6.80;99.90;;;;;;4965248;28;20233;-74
2021/03/14 09:25:16;;;;;;;5.67;2.90;;;6.90;99.90;;;;;;4952001;28;20301;-75
2021/03/14 09:27:45;;;;;;;9.83;3.30;;;6.90;99.90;;;;;;4965584;28;20210;-74
2021/03/14 09:30:21;;;;;;;6.67;3.20;;;7.40;99.90;;;;;;4959560;28;20309;-77
2021/03/14 09:32:53;;;;;;;7.13;3.93;;;7.80;99.90;;;;;;4972247;28;20195;-79
2021/03/14 09:35:30;;;;;;;6.83;3.27;;;8.00;99.90;;;;;;4963454;28;20295;-75
2021/03/14 09:38:01;;;;;;;5.43;2.50;;;8.30;99.90;;;;;;4957825;28;20352;-76
2021/03/14 09:40:31;;;;;;;6.87;2.47;;;8.20;99.90;;;;;;4952676;28;21182;-76
2021/03/14 09:43:08;;;;;;;7.27;2.67;;;8.30;99.90;;;;;;4960734;28;20218;-76
2021/03/14 09:45:39;;;;;;;4.47;2.17;;;8.60;99.90;;;;;;4961782;28;20213;-76
2021/03/14 09:48:11;;;;;;;8.03;2.20;;;8.70;99.90;;;;;;4955193;28;20199;-76
2021/03/14 09:50:45;;;;;;;3.07;2.30;;;8.80;99.90;;;;;;4966004;28;20265;-80
2021/03/14 09:53:12;;;;;;;2.93;1.83;;;9.10;99.90;;;;;;4959534;28;20204;-77
2021/03/14 09:55:47;;;;;;;2.73;1.80;;;9.10;99.90;;;;;;4947241;28;20214;-79
2021/03/14 09:58:17;;;;;;;4.87;2.03;;;9.10;99.90;;;;;;4961871;28;20204;-76
2021/03/14 10:00:45;;;;;;;6.83;3.57;;;9.10;99.90;;;;;;4962255;28;20278;-78
2021/03/14 10:03:22;;;;;;;3.90;1.97;;;9.00;99.90;;;;;;4960996;28;20217;-77
2021/03/14 10:05:51;;;;;;;6.13;2.03;;;9.10;99.90;;;;;;4963022;28;20222;-76
2021/03/14 10:08:22;;;;;;;6.03;2.33;;;8.80;99.90;;;;;;4948513;28;20234;-78
2021/03/14 10:10:51;;;;;;;2.83;1.67;;;8.70;99.90;;;;;;4969648;28;20227;-76
2021/03/14 10:13:23;;;;;;;3.10;1.77;;;8.30;99.90;;;;;;4961530;28;20211;-76
2021/03/14 10:15:51;;;;;;;4.47;1.73;;;8.40;99.90;;;;;;4958375;28;20238;-75
2021/03/14 10:18:22;;;;;;;2.63;2.03;;;8.40;99.90;;;;;;4956712;28;20217;-76
2021/03/14 10:20:50;;;;;;;6.03;2.07;;;8.60;99.90;;;;;;4936721;28;20203;-79
2021/03/14 10:23:23;;;;;;;3.30;1.93;;;8.70;99.90;;;;;;4957555;28;20339;-77
2021/03/14 10:25:51;;;;;;;5.20;1.90;;;8.80;99.90;;;;;;4960195;28;20201;-79
2021/03/14 10:28:20;;;;;;;3.17;1.80;;;9.10;99.90;;;;;;4963002;28;20545;-78
2021/03/14 10:30:48;;;;;;;4.77;2.50;;;9.20;99.90;;;;;;4958768;28;20539;-78
2021/03/14 10:33:27;;;;;;;2.13;1.60;;;9.20;99.90;;;;;;4970243;28;20264;-79
2021/03/14 10:36:07;;;;;;;2.20;1.60;;;9.40;99.90;;;;;;4958312;28;20197;-78
2021/03/14 10:38:43;;;;;;;6.10;1.97;;;9.20;99.90;;;;;;4956704;28;21018;-79
2021/03/14 10:41:13;;;;;;;4.27;2.07;;;9.20;99.90;;;;;;4959152;28;20217;-77
2021/03/14 10:43:52;;;;;;;3.97;1.57;;;9.30;99.90;;;;;;4962077;28;20300;-77
2021/03/14 10:46:37;;;;;;;4.67;1.80;;;9.20;99.90;;;;;;4961038;28;20217;-79
2021/03/14 10:49:08;;;;;;;7.63;1.90;;;9.20;99.90;;;;;;4959315;28;20218;-77
2021/03/14 10:51:36;;;;;;;7.67;1.80;;;9.50;99.90;;;;;;4959449;28;20206;-77
2021/03/14 10:54:06;;;;;;;5.97;1.77;;;9.90;99.90;;;;;;4959416;28;20289;-76
2021/03/14 10:56:45;;;;;;;7.10;2.17;;;9.90;99.90;;;;;;4956249;28;20212;-78
2021/03/14 10:59:33;;;;;;;3.67;1.60;;;9.80;99.90;;;;;;4965272;28;20272;-78
2021/03/14 11:02:35;;;;;;;2.50;1.37;;;9.60;99.90;;;;;;4965144;28;20234;-78
2021/03/14 11:05:03;;;;;;;4.37;1.70;;;9.80;99.90;;;;;;4952555;28;20205;-78
2021/03/14 11:07:35;;;;;;;13.70;1.67;;;10.00;99.90;;;;;;4966323;28;20622;-79
2021/03/14 11:10:17;;;;;;;4.53;1.73;;;10.10;99.90;;;;;;4976926;28;20267;-79
2021/03/14 11:12:47;;;;;;;8.87;1.93;;;10.00;99.90;;;;;;4979356;28;20203;-75
2021/03/14 11:15:28;;;;;;;2.80;1.50;;;9.80;99.90;;;;;;4972424;28;20208;-76
2021/03/14 11:17:57;;;;;;;5.80;1.50;;;9.60;99.90;;;;;;4969837;28;20289;-75
2021/03/14 11:20:27;;;;;;;2.77;1.43;;;9.60;99.90;;;;;;4977367;28;20290;-75
2021/03/14 11:22:55;;;;;;;2.30;1.10;;;9.50;99.90;;;;;;4979049;28;20221;-76
2021/03/14 11:25:23;;;;;;;2.77;1.50;;;9.50;99.90;;;;;;4958574;28;20296;-75
2021/03/14 11:27:54;;;;;;;5.07;1.50;;;9.50;99.90;;;;;;4971527;28;20208;-76
2021/03/14 11:30:25;;;;;;;1.73;1.07;;;9.50;99.90;;;;;;4973405;28;20620;-76
2021/03/14 11:32:51;;;;;;;4.17;1.30;;;9.40;99.90;;;;;;4975219;28;20290;-75
2021/03/14 11:35:18;;;;;;;6.70;1.50;;;9.40;99.90;;;;;;4964074;28;20231;-76
2021/03/14 11:37:44;;;;;;;3.47;1.30;;;9.40;99.90;;;;;;4946212;28;20279;-75
2021/03/14 11:40:12;;;;;;;4.77;1.77;;;9.40;99.90;;;;;;4962261;28;20283;-76
2021/03/14 11:42:39;;;;;;;8.83;1.73;;;9.50;99.90;;;;;;4949273;28;20255;-77
2021/03/14 11:45:07;;;;;;;6.10;1.40;;;9.60;99.90;;;;;;4979553;28;20213;-76
2021/03/14 11:47:34;;;;;;;1.77;0.90;;;9.70;99.90;;;;;;4983625;28;20308;-77
2021/03/14 11:50:01;;;;;;;2.77;1.10;;;9.50;99.90;;;;;;4969681;28;20640;-77
2021/03/14 11:52:28;;;;;;;1.27;0.80;;;9.40;99.90;;;;;;4970160;28;20211;-76
2021/03/14 11:54:54;;;;;;;4.80;1.90;;;9.50;99.90;;;;;;4980615;28;20307;-76
2021/03/14 11:57:21;;;;;;;2.40;1.27;;;9.50;99.90;;;;;;4939617;28;20905;-77
2021/03/14 11:59:48;;;;;;;5.37;1.33;;;9.40;99.90;;;;;;4964569;28;20278;-76
2021/03/14 12:02:14;;;;;;;9.23;2.20;;;9.40;99.90;;;;;;4974520;28;20283;-76
2021/03/14 12:04:41;;;;;;;5.23;1.30;;;9.10;99.90;;;;;;4968623;28;20681;-78
2021/03/14 12:07:07;;;;;;;3.20;1.60;;;9.00;99.90;;;;;;4952737;28;20203;-77
2021/03/14 12:09:34;;;;;;;3.03;1.40;;;9.10;99.90;;;;;;4964225;28;20244;-76
2021/03/14 12:12:03;;;;;;;5.47;1.47;;;9.00;99.90;;;;;;4963845;28;20611;-76
2021/03/14 12:14:30;;;;;;;4.97;1.77;;;8.80;99.90;;;;;;4937666;28;20465;-76
2021/03/14 12:16:56;;;;;;;6.03;2.10;;;9.00;99.90;;;;;;4984090;28;21838;-76
2021/03/14 12:19:22;;;;;;;4.57;1.40;;;9.10;99.90;;;;;;4965775;28;20312;-76
2021/03/14 12:21:49;;;;;;;4.20;1.70;;;9.20;99.90;;;;;;4938376;28;20285;-76
2021/03/14 12:24:15;;;;;;;3.63;1.37;;;9.40;99.90;;;;;;4950853;28;20215;-76
2021/03/14 12:26:41;;;;;;;3.67;1.53;;;9.50;99.90;;;;;;4956412;28;20281;-77
2021/03/14 12:29:09;;;;;;;3.33;1.67;;;9.60;99.90;;;;;;4957602;28;20227;-78
2021/03/14 12:31:35;;;;;;;4.50;1.50;;;9.60;99.90;;;;;;4949504;28;20652;-76
2021/03/14 12:34:02;;;;;;;1.93;1.40;;;9.80;99.90;;;;;;4961856;28;20212;-76
2021/03/14 12:36:28;;;;;;;4.67;1.53;;;9.90;99.90;;;;;;4968768;28;20309;-78
2021/03/14 12:38:55;;;;;;;5.30;1.30;;;9.70;99.90;;;;;;4959124;28;20209;-77
2021/03/14 12:41:21;;;;;;;4.57;1.60;;;9.60;99.90;;;;;;4932462;28;20208;-78
2021/03/14 12:43:47;;;;;;;5.97;1.77;;;9.50;99.90;;;;;;4941092;28;20247;-79
2021/03/14 12:46:14;;;;;;;7.03;1.70;;;9.60;99.90;;;;;;4943124;28;20209;-78
2021/03/14 12:48:41;;;;;;;7.37;2.00;;;9.20;99.90;;;;;;4962316;28;20285;-78
2021/03/14 12:51:08;;;;;;;3.70;1.77;;;9.10;99.90;;;;;;4958914;28;20217;-76
2021/03/14 12:53:34;;;;;;;3.53;1.53;;;9.20;99.90;;;;;;4958973;28;20300;-77
2021/03/14 12:56:00;;;;;;;6.17;1.70;;;9.30;99.90;;;;;;4972269;28;20198;-77
2021/03/14 12:58:27;;;;;;;6.00;2.03;;;9.60;99.90;;;;;;4944216;28;20267;-77
2021/03/14 13:00:54;;;;;;;8.20;1.80;;;10.20;99.90;;;;;;4972116;28;20208;-78
2021/03/14 13:03:20;;;;;;;5.77;1.77;;;10.50;99.90;;;;;;4955716;28;20605;-78
2021/03/14 13:05:47;;;;;;;7.83;1.73;;;10.30;99.90;;;;;;4944079;28;20237;-78
2021/03/14 13:08:13;;;;;;;7.27;1.30;;;10.30;99.90;;;;;;4961492;28;20308;-78
2021/03/14 13:10:40;;;;;;;2.60;1.50;;;10.60;99.90;;;;;;4959303;28;20248;-77